Waco Regional Airport
KACT : now visible

Airfield :











YOU CAN JOIN US ON...

 
LOGIN :

Register | Disclaimer

   EN    FR    IT 

 









Legend :    VFR   Marginal VFR   IFR   Intensive IFR   Very Intensive IFR
Visi :
Ceiling :
>= 8 km
>= 3000ft
5 to 8 km
1000 to 3000 ft
1500m to 5 km
500 to 1000 ft
800 to 1500m
200 to 500 ft
< 800m
< 200 ft
Symbols :   Thunderstorms  Fog  Heavy snow  Heavy precipitations  Wind > 20 kt







- Airport Elevation : 516 ft
- IATA code : ACT


KACT - Waco Regional

CURRENT METAR :
  • 230951Z AUTO 16008KT 10SM OVC011 19/17 A2997 RMK AO2 SLP142 T01890167 $

EXPIRED METARs :
  • 230851Z AUTO 16009KT 10SM OVC014 19/17 A2999 RMK AO2 SLP151 T01940167 58002 $
  • 230751Z AUTO 18008KT 10SM OVC021 19/17 A3001 RMK AO2 SLP157 T01940167 $

TAF KACT
Valid from the 23 at 09:00 until the 24 at 06:00 UTC


230849Z 2309/2406 15009KT P6SM BKN015
FM231100 13008KT 5SM BR VCSH OVC008
FM231700 16010KT P6SM VCSH OVC012
FM232200 15010KT P6SM BKN030
KZFW FIR / North America



MET'MAP, your aeronautical weather chart ! - Copyright ORBIFLY December 2007 - Disclaimer

ORBIFLY MET'MAP TEAM :

Programming & Development : Alexandra Zaïnal
Concept & Development : Baudouin d'Aumeries
Co-Development & Prog : Marc-Olivier Méhu
Technical & hardware support : Manuel Goepfert

Contact : metmap@orbifly.com




SOURCES & CREDITS :

   NOAA       Earth
Advisory